Search for airport 
image banner adimage banner adimage banner ad
image banner ad

IA89 - Woodward State Hospital

Located in Woodward, United States

ICAO - IA89, IATA -

Data provided by Airmate  

General information

Coordinates: N41°52'17" W93°54'51"
Elevation is 1060 feet MSL.
Magnetic variation is 04° East
View others Airports in Iowa

Operational data

Special qualification required
Current time UTC:
Current local time:
Weather at : KBNW - Boone Muni ( 21 km )
METAR: KBNW 181735Z AUTO 09004KT 10SM CLR 28/15 A2989 RMK AO2
View NOTAMs / SUP AIP / TFR affecting this airport [VIEW]
Communications frequencies: [VIEW]

Runways:

Airport contact information

Address: Woodward United States

Satellite view of IA89